Wooler, United Kingdom
Current Conditions -  °F | °C
As of 7:50 AM on Sunday 26 Oct 2014 (Local Time) from EGQM Reporting Station
Scattered Clouds Scattered Clouds  
Wind Chill: 55°   Ceiling: Unl
Heat Index: 55°   Visibility: 6mi
Dew Point: 48°   Wind: 24mph
Humidity: 77%   Direction: 210°SSW
Pressure: 29.74"   Gusts: 38mph
Location:  55.55°N, 2.01°W
Report Text: EGQM 260650Z AUTO 21021G33KT 9999 SCT050/// 13/09 Q1007 RERA
Loading
Personal Weather Stations






























Interactive Weather Map
Tropical Storm Tracking
New forecast layout! Learn more

10-Day Weather Forecast

Advertisements
Track Severe Weather on mobile